sensor_id;sensor_type;location;lat;lon;timestamp;P1;durP1;ratioP1;P2;durP2;ratioP2
59786;SDS011;45672;51.612;5.536;2022-12-01T00:01:19;50.65;;;23.50;;
59786;SDS011;45672;51.612;5.536;2022-12-01T00:03:45;42.15;;;21.13;;
59786;SDS011;45672;51.612;5.536;2022-12-01T00:06:18;45.65;;;23.80;;
59786;SDS011;45672;51.612;5.536;2022-12-01T00:08:45;49.75;;;23.15;;
59786;SDS011;45672;51.612;5.536;2022-12-01T00:11:31;50.33;;;23.23;;
59786;SDS011;45672;51.612;5.536;2022-12-01T00:13:58;51.15;;;23.73;;
59786;SDS011;45672;51.612;5.536;2022-12-01T00:16:23;50.47;;;23.75;;
59786;SDS011;45672;51.612;5.536;2022-12-01T00:18:49;46.05;;;21.65;;
59786;SDS011;45672;51.612;5.536;2022-12-01T00:21:18;52.35;;;23.40;;
59786;SDS011;45672;51.612;5.536;2022-12-01T00:23:46;48.50;;;22.38;;
59786;SDS011;45672;51.612;5.536;2022-12-01T00:26:12;51.83;;;23.88;;
59786;SDS011;45672;51.612;5.536;2022-12-01T00:28:38;49.78;;;23.55;;
59786;SDS011;45672;51.612;5.536;2022-12-01T00:31:07;52.40;;;24.55;;
59786;SDS011;45672;51.612;5.536;2022-12-01T00:33:33;53.45;;;24.48;;
59786;SDS011;45672;51.612;5.536;2022-12-01T00:35:59;51.03;;;23.15;;
59786;SDS011;45672;51.612;5.536;2022-12-01T00:38:25;54.63;;;23.42;;
59786;SDS011;45672;51.612;5.536;2022-12-01T00:40:50;53.53;;;24.27;;
59786;SDS011;45672;51.612;5.536;2022-12-01T00:43:15;62.83;;;25.08;;
59786;SDS011;45672;51.612;5.536;2022-12-01T00:45:41;54.40;;;24.58;;
59786;SDS011;45672;51.612;5.536;2022-12-01T00:48:07;57.15;;;24.90;;
59786;SDS011;45672;51.612;5.536;2022-12-01T00:50:32;55.83;;;24.75;;
59786;SDS011;45672;51.612;5.536;2022-12-01T00:52:57;61.53;;;25.08;;
59786;SDS011;45672;51.612;5.536;2022-12-01T00:55:23;53.95;;;23.85;;
59786;SDS011;45672;51.612;5.536;2022-12-01T00:57:48;61.65;;;24.92;;
59786;SDS011;45672;51.612;5.536;2022-12-01T01:00:13;60.38;;;24.38;;
59786;SDS011;45672;51.612;5.536;2022-12-01T01:02:40;61.15;;;24.42;;
59786;SDS011;45672;51.612;5.536;2022-12-01T01:05:05;54.88;;;24.08;;
59786;SDS011;45672;51.612;5.536;2022-12-01T01:07:31;58.10;;;24.90;;
59786;SDS011;45672;51.612;5.536;2022-12-01T01:09:56;51.28;;;22.38;;
59786;SDS011;45672;51.612;5.536;2022-12-01T01:12:21;56.40;;;25.58;;
59786;SDS011;45672;51.612;5.536;2022-12-01T01:14:47;51.88;;;23.63;;
59786;SDS011;45672;51.612;5.536;2022-12-01T01:17:12;53.13;;;22.63;;
59786;SDS011;45672;51.612;5.536;2022-12-01T01:19:37;57.40;;;23.52;;
59786;SDS011;45672;51.612;5.536;2022-12-01T01:22:03;53.05;;;23.55;;
59786;SDS011;45672;51.612;5.536;2022-12-01T01:24:28;50.72;;;22.60;;
59786;SDS011;45672;51.612;5.536;2022-12-01T01:26:53;53.10;;;22.95;;
59786;SDS011;45672;51.612;5.536;2022-12-01T01:29:20;54.78;;;23.35;;
59786;SDS011;45672;51.612;5.536;2022-12-01T01:31:46;49.70;;;21.33;;
59786;SDS011;45672;51.612;5.536;2022-12-01T01:34:11;57.45;;;23.88;;
59786;SDS011;45672;51.612;5.536;2022-12-01T01:36:36;53.92;;;22.45;;
59786;SDS011;45672;51.612;5.536;2022-12-01T01:39:02;55.90;;;23.33;;
59786;SDS011;45672;51.612;5.536;2022-12-01T01:41:28;58.42;;;23.58;;
59786;SDS011;45672;51.612;5.536;2022-12-01T01:43:54;53.40;;;23.13;;
59786;SDS011;45672;51.612;5.536;2022-12-01T01:49:05;59.58;;;24.70;;
59786;SDS011;45672;51.612;5.536;2022-12-01T01:51:51;62.05;;;24.25;;
59786;SDS011;45672;51.612;5.536;2022-12-01T01:54:24;56.58;;;23.23;;
59786;SDS011;45672;51.612;5.536;2022-12-01T01:56:53;54.45;;;21.45;;
59786;SDS011;45672;51.612;5.536;2022-12-01T01:59:22;55.28;;;23.42;;
59786;SDS011;45672;51.612;5.536;2022-12-01T02:01:59;51.08;;;21.23;;
59786;SDS011;45672;51.612;5.536;2022-12-01T02:04:34;55.15;;;22.13;;
59786;SDS011;45672;51.612;5.536;2022-12-01T02:07:01;62.63;;;24.35;;
59786;SDS011;45672;51.612;5.536;2022-12-01T02:09:27;52.47;;;23.20;;
59786;SDS011;45672;51.612;5.536;2022-12-01T02:12:02;52.95;;;22.13;;
59786;SDS011;45672;51.612;5.536;2022-12-01T02:15:04;59.67;;;23.42;;
59786;SDS011;45672;51.612;5.536;2022-12-01T02:26:30;64.43;;;25.77;;
59786;SDS011;45672;51.612;5.536;2022-12-01T02:31:42;47.33;;;19.77;;
59786;SDS011;45672;51.612;5.536;2022-12-01T02:34:16;56.63;;;24.45;;
59786;SDS011;45672;51.612;5.536;2022-12-01T02:36:56;57.15;;;24.42;;
59786;SDS011;45672;51.612;5.536;2022-12-01T02:39:30;56.13;;;25.23;;
59786;SDS011;45672;51.612;5.536;2022-12-01T02:42:10;57.30;;;24.65;;
59786;SDS011;45672;51.612;5.536;2022-12-01T02:45:05;64.37;;;25.60;;
59786;SDS011;45672;51.612;5.536;2022-12-01T02:47:37;55.45;;;23.88;;
59786;SDS011;45672;51.612;5.536;2022-12-01T02:50:06;60.92;;;24.92;;
59786;SDS011;45672;51.612;5.536;2022-12-01T02:52:34;61.70;;;24.42;;
59786;SDS011;45672;51.612;5.536;2022-12-01T02:54:59;56.28;;;24.10;;
59786;SDS011;45672;51.612;5.536;2022-12-01T02:57:24;61.90;;;24.92;;
59786;SDS011;45672;51.612;5.536;2022-12-01T02:59:51;57.35;;;24.45;;
59786;SDS011;45672;51.612;5.536;2022-12-01T03:02:27;55.70;;;24.88;;
59786;SDS011;45672;51.612;5.536;2022-12-01T03:05:21;64.07;;;24.67;;
59786;SDS011;45672;51.612;5.536;2022-12-01T03:07:59;61.10;;;25.33;;
59786;SDS011;45672;51.612;5.536;2022-12-01T03:10:54;58.15;;;24.70;;
59786;SDS011;45672;51.612;5.536;2022-12-01T03:13:29;59.80;;;25.15;;
59786;SDS011;45672;51.612;5.536;2022-12-01T03:21:14;49.00;;;21.67;;
59786;SDS011;45672;51.612;5.536;2022-12-01T03:23:44;53.30;;;23.65;;
59786;SDS011;45672;51.612;5.536;2022-12-01T03:26:16;52.88;;;24.25;;
59786;SDS011;45672;51.612;5.536;2022-12-01T03:28:53;49.95;;;24.25;;
59786;SDS011;45672;51.612;5.536;2022-12-01T03:31:24;53.05;;;24.40;;
59786;SDS011;45672;51.612;5.536;2022-12-01T03:34:15;48.17;;;22.73;;
59786;SDS011;45672;51.612;5.536;2022-12-01T03:36:51;53.15;;;24.73;;
59786;SDS011;45672;51.612;5.536;2022-12-01T03:39:23;51.28;;;23.55;;
59786;SDS011;45672;51.612;5.536;2022-12-01T03:41:57;60.17;;;25.30;;
59786;SDS011;45672;51.612;5.536;2022-12-01T03:44:38;45.55;;;22.13;;
59786;SDS011;45672;51.612;5.536;2022-12-01T03:47:09;52.47;;;23.83;;
59786;SDS011;45672;51.612;5.536;2022-12-01T03:49:38;54.25;;;24.15;;
59786;SDS011;45672;51.612;5.536;2022-12-01T03:54:45;42.42;;;20.23;;
59786;SDS011;45672;51.612;5.536;2022-12-01T04:00:27;50.92;;;22.30;;
59786;SDS011;45672;51.612;5.536;2022-12-01T04:02:54;53.78;;;24.00;;
59786;SDS011;45672;51.612;5.536;2022-12-01T04:05:20;52.63;;;24.45;;
59786;SDS011;45672;51.612;5.536;2022-12-01T04:07:46;52.30;;;24.67;;
59786;SDS011;45672;51.612;5.536;2022-12-01T04:10:11;46.67;;;23.58;;
59786;SDS011;45672;51.612;5.536;2022-12-01T04:12:36;55.97;;;23.83;;
59786;SDS011;45672;51.612;5.536;2022-12-01T04:15:05;49.13;;;24.52;;
59786;SDS011;45672;51.612;5.536;2022-12-01T04:17:34;52.58;;;23.88;;
59786;SDS011;45672;51.612;5.536;2022-12-01T04:19:59;51.15;;;24.33;;
59786;SDS011;45672;51.612;5.536;2022-12-01T04:22:25;52.80;;;23.75;;
59786;SDS011;45672;51.612;5.536;2022-12-01T04:24:51;50.65;;;24.13;;
59786;SDS011;45672;51.612;5.536;2022-12-01T04:27:17;50.88;;;24.67;;
59786;SDS011;45672;51.612;5.536;2022-12-01T04:29:43;48.50;;;23.60;;
59786;SDS011;45672;51.612;5.536;2022-12-01T04:32:09;50.97;;;22.90;;
59786;SDS011;45672;51.612;5.536;2022-12-01T04:34:34;46.55;;;23.75;;
59786;SDS011;45672;51.612;5.536;2022-12-01T04:37:00;52.20;;;24.73;;
59786;SDS011;45672;51.612;5.536;2022-12-01T04:39:25;49.72;;;24.50;;
59786;SDS011;45672;51.612;5.536;2022-12-01T04:41:50;50.75;;;23.33;;
59786;SDS011;45672;51.612;5.536;2022-12-01T04:44:16;52.38;;;23.90;;
59786;SDS011;45672;51.612;5.536;2022-12-01T04:46:41;52.00;;;23.88;;
59786;SDS011;45672;51.612;5.536;2022-12-01T04:49:07;52.22;;;24.55;;
59786;SDS011;45672;51.612;5.536;2022-12-01T04:51:32;45.72;;;23.20;;
59786;SDS011;45672;51.612;5.536;2022-12-01T04:53:57;49.45;;;23.83;;
59786;SDS011;45672;51.612;5.536;2022-12-01T04:56:23;53.00;;;24.27;;
59786;SDS011;45672;51.612;5.536;2022-12-01T04:58:48;50.78;;;23.42;;
59786;SDS011;45672;51.612;5.536;2022-12-01T05:01:14;50.78;;;24.08;;
59786;SDS011;45672;51.612;5.536;2022-12-01T05:03:42;46.55;;;23.45;;
59786;SDS011;45672;51.612;5.536;2022-12-01T05:06:10;50.20;;;23.70;;
59786;SDS011;45672;51.612;5.536;2022-12-01T05:08:38;50.45;;;23.00;;
59786;SDS011;45672;51.612;5.536;2022-12-01T05:11:03;53.80;;;24.02;;
59786;SDS011;45672;51.612;5.536;2022-12-01T05:13:31;46.80;;;23.23;;
59786;SDS011;45672;51.612;5.536;2022-12-01T05:16:07;54.80;;;24.02;;
59786;SDS011;45672;51.612;5.536;2022-12-01T05:18:37;52.53;;;24.08;;
59786;SDS011;45672;51.612;5.536;2022-12-01T05:21:03;53.47;;;24.05;;
59786;SDS011;45672;51.612;5.536;2022-12-01T05:23:31;48.22;;;23.63;;
59786;SDS011;45672;51.612;5.536;2022-12-01T05:25:58;51.95;;;23.70;;
59786;SDS011;45672;51.612;5.536;2022-12-01T05:28:24;48.40;;;22.13;;
59786;SDS011;45672;51.612;5.536;2022-12-01T05:30:50;47.03;;;22.77;;
59786;SDS011;45672;51.612;5.536;2022-12-01T05:33:17;48.75;;;23.73;;
59786;SDS011;45672;51.612;5.536;2022-12-01T05:35:42;47.33;;;23.17;;
59786;SDS011;45672;51.612;5.536;2022-12-01T05:38:08;53.90;;;24.00;;
59786;SDS011;45672;51.612;5.536;2022-12-01T05:40:34;48.25;;;24.25;;
59786;SDS011;45672;51.612;5.536;2022-12-01T05:43:00;54.67;;;24.25;;
59786;SDS011;45672;51.612;5.536;2022-12-01T05:45:25;51.33;;;24.98;;
59786;SDS011;45672;51.612;5.536;2022-12-01T05:47:54;61.92;;;25.75;;
59786;SDS011;45672;51.612;5.536;2022-12-01T05:50:21;59.72;;;25.55;;
59786;SDS011;45672;51.612;5.536;2022-12-01T05:52:47;53.70;;;25.48;;
59786;SDS011;45672;51.612;5.536;2022-12-01T05:55:13;54.53;;;24.55;;
59786;SDS011;45672;51.612;5.536;2022-12-01T05:57:38;51.45;;;24.50;;
59786;SDS011;45672;51.612;5.536;2022-12-01T06:00:04;54.35;;;24.38;;
59786;SDS011;45672;51.612;5.536;2022-12-01T06:02:30;55.75;;;25.05;;
59786;SDS011;45672;51.612;5.536;2022-12-01T06:04:55;57.63;;;25.98;;
59786;SDS011;45672;51.612;5.536;2022-12-01T06:07:21;56.97;;;24.55;;
59786;SDS011;45672;51.612;5.536;2022-12-01T06:09:49;59.40;;;24.50;;
59786;SDS011;45672;51.612;5.536;2022-12-01T06:12:15;57.17;;;26.20;;
59786;SDS011;45672;51.612;5.536;2022-12-01T06:14:40;56.65;;;23.85;;
59786;SDS011;45672;51.612;5.536;2022-12-01T06:17:05;64.50;;;25.58;;
59786;SDS011;45672;51.612;5.536;2022-12-01T06:19:31;59.13;;;25.17;;
59786;SDS011;45672;51.612;5.536;2022-12-01T06:21:56;54.40;;;23.92;;
59786;SDS011;45672;51.612;5.536;2022-12-01T06:24:22;53.63;;;24.08;;
59786;SDS011;45672;51.612;5.536;2022-12-01T06:26:47;60.40;;;24.15;;
59786;SDS011;45672;51.612;5.536;2022-12-01T06:29:13;55.03;;;24.75;;
59786;SDS011;45672;51.612;5.536;2022-12-01T06:31:38;53.78;;;23.83;;
59786;SDS011;45672;51.612;5.536;2022-12-01T06:34:03;55.13;;;23.85;;
59786;SDS011;45672;51.612;5.536;2022-12-01T06:36:29;52.38;;;23.05;;
59786;SDS011;45672;51.612;5.536;2022-12-01T06:38:54;56.63;;;24.90;;
59786;SDS011;45672;51.612;5.536;2022-12-01T06:41:19;57.70;;;25.58;;
59786;SDS011;45672;51.612;5.536;2022-12-01T06:43:45;59.35;;;25.73;;
59786;SDS011;45672;51.612;5.536;2022-12-01T06:46:10;52.28;;;23.20;;
59786;SDS011;45672;51.612;5.536;2022-12-01T06:48:35;59.28;;;24.95;;
59786;SDS011;45672;51.612;5.536;2022-12-01T06:51:00;53.92;;;24.38;;
59786;SDS011;45672;51.612;5.536;2022-12-01T06:53:27;46.45;;;20.67;;
59786;SDS011;45672;51.612;5.536;2022-12-01T06:55:53;54.50;;;25.08;;
59786;SDS011;45672;51.612;5.536;2022-12-01T06:58:23;49.47;;;22.35;;
59786;SDS011;45672;51.612;5.536;2022-12-01T07:00:49;53.00;;;23.35;;
59786;SDS011;45672;51.612;5.536;2022-12-01T07:03:14;57.53;;;24.35;;
59786;SDS011;45672;51.612;5.536;2022-12-01T07:05:39;53.65;;;24.45;;
59786;SDS011;45672;51.612;5.536;2022-12-01T07:08:04;55.88;;;23.90;;
59786;SDS011;45672;51.612;5.536;2022-12-01T07:10:30;58.25;;;23.90;;
59786;SDS011;45672;51.612;5.536;2022-12-01T07:12:56;50.38;;;23.95;;
59786;SDS011;45672;51.612;5.536;2022-12-01T07:15:21;51.13;;;24.23;;
59786;SDS011;45672;51.612;5.536;2022-12-01T07:17:48;49.22;;;22.67;;
59786;SDS011;45672;51.612;5.536;2022-12-01T07:20:13;57.38;;;23.90;;
59786;SDS011;45672;51.612;5.536;2022-12-01T07:22:38;51.20;;;23.45;;
59786;SDS011;45672;51.612;5.536;2022-12-01T07:25:04;49.75;;;22.27;;
59786;SDS011;45672;51.612;5.536;2022-12-01T07:27:30;52.00;;;24.20;;
59786;SDS011;45672;51.612;5.536;2022-12-01T07:29:56;54.72;;;23.70;;
59786;SDS011;45672;51.612;5.536;2022-12-01T07:32:21;57.78;;;25.27;;
59786;SDS011;45672;51.612;5.536;2022-12-01T07:34:47;54.00;;;23.55;;
59786;SDS011;45672;51.612;5.536;2022-12-01T07:37:12;47.67;;;23.50;;
59786;SDS011;45672;51.612;5.536;2022-12-01T07:39:37;56.55;;;24.15;;
59786;SDS011;45672;51.612;5.536;2022-12-01T07:42:03;51.38;;;24.15;;
59786;SDS011;45672;51.612;5.536;2022-12-01T07:44:28;49.33;;;23.52;;
59786;SDS011;45672;51.612;5.536;2022-12-01T07:46:54;47.28;;;24.33;;
59786;SDS011;45672;51.612;5.536;2022-12-01T07:49:19;48.58;;;23.98;;
59786;SDS011;45672;51.612;5.536;2022-12-01T07:51:44;51.47;;;23.30;;
59786;SDS011;45672;51.612;5.536;2022-12-01T07:54:10;51.55;;;24.25;;
59786;SDS011;45672;51.612;5.536;2022-12-01T07:56:38;47.70;;;21.15;;
59786;SDS011;45672;51.612;5.536;2022-12-01T07:59:04;51.47;;;24.48;;
59786;SDS011;45672;51.612;5.536;2022-12-01T08:01:29;49.45;;;24.27;;
59786;SDS011;45672;51.612;5.536;2022-12-01T08:03:55;51.75;;;24.05;;
59786;SDS011;45672;51.612;5.536;2022-12-01T08:06:21;51.15;;;24.20;;
59786;SDS011;45672;51.612;5.536;2022-12-01T08:08:48;54.10;;;24.50;;
59786;SDS011;45672;51.612;5.536;2022-12-01T08:11:18;50.78;;;23.73;;
59786;SDS011;45672;51.612;5.536;2022-12-01T08:13:48;57.60;;;24.65;;
59786;SDS011;45672;51.612;5.536;2022-12-01T08:16:15;58.63;;;25.25;;
59786;SDS011;45672;51.612;5.536;2022-12-01T08:18:42;56.50;;;24.85;;
59786;SDS011;45672;51.612;5.536;2022-12-01T08:21:09;52.10;;;24.55;;
59786;SDS011;45672;51.612;5.536;2022-12-01T08:23:36;56.63;;;23.80;;
59786;SDS011;45672;51.612;5.536;2022-12-01T08:26:03;50.20;;;24.75;;
59786;SDS011;45672;51.612;5.536;2022-12-01T08:28:36;53.38;;;25.63;;
59786;SDS011;45672;51.612;5.536;2022-12-01T08:33:38;49.75;;;24.23;;
59786;SDS011;45672;51.612;5.536;2022-12-01T08:36:04;50.85;;;25.50;;
59786;SDS011;45672;51.612;5.536;2022-12-01T08:38:30;47.58;;;24.42;;
59786;SDS011;45672;51.612;5.536;2022-12-01T08:41:01;50.75;;;24.80;;
59786;SDS011;45672;51.612;5.536;2022-12-01T08:43:29;50.10;;;24.10;;
59786;SDS011;45672;51.612;5.536;2022-12-01T08:45:58;48.35;;;23.83;;
59786;SDS011;45672;51.612;5.536;2022-12-01T08:48:26;50.17;;;23.92;;
59786;SDS011;45672;51.612;5.536;2022-12-01T08:51:01;51.42;;;24.77;;
59786;SDS011;45672;51.612;5.536;2022-12-01T08:53:31;52.38;;;25.50;;
59786;SDS011;45672;51.612;5.536;2022-12-01T08:55:58;47.17;;;24.08;;
59786;SDS011;45672;51.612;5.536;2022-12-01T08:58:28;49.30;;;24.98;;
59786;SDS011;45672;51.612;5.536;2022-12-01T09:00:59;55.28;;;25.52;;
59786;SDS011;45672;51.612;5.536;2022-12-01T09:03:29;50.65;;;24.52;;
59786;SDS011;45672;51.612;5.536;2022-12-01T09:05:59;46.22;;;24.63;;
59786;SDS011;45672;51.612;5.536;2022-12-01T09:08:26;51.03;;;24.95;;
59786;SDS011;45672;51.612;5.536;2022-12-01T09:10:59;48.63;;;23.55;;
59786;SDS011;45672;51.612;5.536;2022-12-01T09:13:26;50.30;;;24.38;;
59786;SDS011;45672;51.612;5.536;2022-12-01T09:15:56;58.17;;;25.30;;
59786;SDS011;45672;51.612;5.536;2022-12-01T09:18:23;50.35;;;24.95;;
59786;SDS011;45672;51.612;5.536;2022-12-01T09:20:49;47.25;;;24.75;;
59786;SDS011;45672;51.612;5.536;2022-12-01T09:23:15;52.80;;;24.90;;
59786;SDS011;45672;51.612;5.536;2022-12-01T09:25:40;48.58;;;24.20;;
59786;SDS011;45672;51.612;5.536;2022-12-01T09:28:06;54.90;;;25.67;;
59786;SDS011;45672;51.612;5.536;2022-12-01T09:30:33;49.00;;;21.63;;
59786;SDS011;45672;51.612;5.536;2022-12-01T09:32:58;54.15;;;25.63;;
59786;SDS011;45672;51.612;5.536;2022-12-01T09:35:24;59.50;;;26.98;;
59786;SDS011;45672;51.612;5.536;2022-12-01T09:37:50;56.33;;;26.38;;
59786;SDS011;45672;51.612;5.536;2022-12-01T09:40:15;45.70;;;23.20;;
59786;SDS011;45672;51.612;5.536;2022-12-01T09:42:41;58.92;;;25.85;;
59786;SDS011;45672;51.612;5.536;2022-12-01T09:45:11;57.20;;;25.42;;
59786;SDS011;45672;51.612;5.536;2022-12-01T09:47:47;56.85;;;26.25;;
59786;SDS011;45672;51.612;5.536;2022-12-01T09:50:14;56.03;;;26.08;;
59786;SDS011;45672;51.612;5.536;2022-12-01T09:52:53;50.67;;;24.67;;
59786;SDS011;45672;51.612;5.536;2022-12-01T09:55:24;54.45;;;24.02;;
59786;SDS011;45672;51.612;5.536;2022-12-01T09:57:54;56.05;;;27.75;;
59786;SDS011;45672;51.612;5.536;2022-12-01T10:00:25;55.17;;;25.77;;
59786;SDS011;45672;51.612;5.536;2022-12-01T10:05:41;56.83;;;26.95;;
59786;SDS011;45672;51.612;5.536;2022-12-01T10:08:13;58.58;;;27.35;;
59786;SDS011;45672;51.612;5.536;2022-12-01T10:10:44;57.20;;;27.27;;
59786;SDS011;45672;51.612;5.536;2022-12-01T10:13:15;56.70;;;27.27;;
59786;SDS011;45672;51.612;5.536;2022-12-01T10:15:46;56.10;;;25.75;;
59786;SDS011;45672;51.612;5.536;2022-12-01T10:24:06;52.08;;;25.50;;
59786;SDS011;45672;51.612;5.536;2022-12-01T10:29:26;52.97;;;25.15;;
59786;SDS011;45672;51.612;5.536;2022-12-01T10:34:44;55.33;;;25.95;;
59786;SDS011;45672;51.612;5.536;2022-12-01T10:37:21;54.40;;;25.45;;
59786;SDS011;45672;51.612;5.536;2022-12-01T10:39:50;53.97;;;24.48;;
59786;SDS011;45672;51.612;5.536;2022-12-01T10:42:33;53.78;;;25.08;;
59786;SDS011;45672;51.612;5.536;2022-12-01T10:45:04;54.25;;;24.58;;
59786;SDS011;45672;51.612;5.536;2022-12-01T10:47:31;50.47;;;24.42;;
59786;SDS011;45672;51.612;5.536;2022-12-01T10:49:57;52.83;;;25.08;;
59786;SDS011;45672;51.612;5.536;2022-12-01T10:55:00;49.90;;;24.75;;
59786;SDS011;45672;51.612;5.536;2022-12-01T10:57:28;46.33;;;23.52;;
59786;SDS011;45672;51.612;5.536;2022-12-01T11:00:04;52.13;;;25.10;;
59786;SDS011;45672;51.612;5.536;2022-12-01T11:02:30;50.45;;;24.73;;
59786;SDS011;45672;51.612;5.536;2022-12-01T11:04:58;55.85;;;26.15;;
59786;SDS011;45672;51.612;5.536;2022-12-01T11:07:27;46.80;;;23.90;;
59786;SDS011;45672;51.612;5.536;2022-12-01T11:10:03;53.08;;;24.65;;
59786;SDS011;45672;51.612;5.536;2022-12-01T11:12:38;40.40;;;19.95;;
59786;SDS011;45672;51.612;5.536;2022-12-01T11:15:04;50.15;;;25.08;;
59786;SDS011;45672;51.612;5.536;2022-12-01T11:17:40;49.78;;;23.85;;
59786;SDS011;45672;51.612;5.536;2022-12-01T11:20:25;48.05;;;24.08;;
59786;SDS011;45672;51.612;5.536;2022-12-01T11:23:39;52.58;;;23.98;;
59786;SDS011;45672;51.612;5.536;2022-12-01T11:26:30;46.85;;;23.60;;
59786;SDS011;45672;51.612;5.536;2022-12-01T11:28:35;48.83;;;21.05;;
59786;SDS011;45672;51.612;5.536;2022-12-01T11:31:03;43.67;;;19.70;;
59786;SDS011;45672;51.612;5.536;2022-12-01T11:33:32;54.22;;;24.17;;
59786;SDS011;45672;51.612;5.536;2022-12-01T11:36:07;47.78;;;22.70;;
59786;SDS011;45672;51.612;5.536;2022-12-01T11:38:33;45.50;;;22.42;;
59786;SDS011;45672;51.612;5.536;2022-12-01T11:40:58;44.08;;;21.60;;
59786;SDS011;45672;51.612;5.536;2022-12-01T11:43:26;48.72;;;21.80;;
59786;SDS011;45672;51.612;5.536;2022-12-01T11:45:55;42.35;;;21.52;;
59786;SDS011;45672;51.612;5.536;2022-12-01T11:48:26;42.28;;;20.55;;
59786;SDS011;45672;51.612;5.536;2022-12-01T11:51:00;41.00;;;20.48;;
59786;SDS011;45672;51.612;5.536;2022-12-01T11:54:03;42.30;;;20.27;;
59786;SDS011;45672;51.612;5.536;2022-12-01T11:56:30;42.33;;;20.73;;
59786;SDS011;45672;51.612;5.536;2022-12-01T11:59:15;42.72;;;21.30;;
59786;SDS011;45672;51.612;5.536;2022-12-01T12:07:12;48.33;;;21.85;;
59786;SDS011;45672;51.612;5.536;2022-12-01T12:16:11;46.45;;;21.60;;
59786;SDS011;45672;51.612;5.536;2022-12-01T12:24:00;53.17;;;21.85;;
59786;SDS011;45672;51.612;5.536;2022-12-01T12:32:22;50.83;;;21.92;;
59786;SDS011;45672;51.612;5.536;2022-12-01T12:40:58;48.47;;;23.10;;
59786;SDS011;45672;51.612;5.536;2022-12-01T12:54:59;43.65;;;21.02;;
59786;SDS011;45672;51.612;5.536;2022-12-01T12:57:36;46.42;;;21.80;;
59786;SDS011;45672;51.612;5.536;2022-12-01T13:00:11;40.75;;;20.95;;
59786;SDS011;45672;51.612;5.536;2022-12-01T13:02:41;49.75;;;21.85;;
59786;SDS011;45672;51.612;5.536;2022-12-01T13:05:30;41.15;;;17.42;;
59786;SDS011;45672;51.612;5.536;2022-12-01T13:10:43;50.75;;;22.83;;
59786;SDS011;45672;51.612;5.536;2022-12-01T13:16:02;48.83;;;21.85;;
59786;SDS011;45672;51.612;5.536;2022-12-01T13:21:08;42.83;;;21.48;;
59786;SDS011;45672;51.612;5.536;2022-12-01T13:23:39;45.85;;;19.88;;
59786;SDS011;45672;51.612;5.536;2022-12-01T13:26:05;47.20;;;22.27;;
59786;SDS011;45672;51.612;5.536;2022-12-01T13:28:35;37.35;;;17.17;;
59786;SDS011;45672;51.612;5.536;2022-12-01T13:31:06;40.30;;;21.00;;
59786;SDS011;45672;51.612;5.536;2022-12-01T13:33:34;45.53;;;21.75;;
59786;SDS011;45672;51.612;5.536;2022-12-01T13:36:01;42.63;;;21.50;;
59786;SDS011;45672;51.612;5.536;2022-12-01T13:38:33;47.78;;;22.27;;
59786;SDS011;45672;51.612;5.536;2022-12-01T13:41:08;43.03;;;21.63;;
59786;SDS011;45672;51.612;5.536;2022-12-01T13:43:36;40.97;;;19.60;;
59786;SDS011;45672;51.612;5.536;2022-12-01T13:46:20;38.78;;;21.55;;
59786;SDS011;45672;51.612;5.536;2022-12-01T13:51:12;37.85;;;21.30;;
59786;SDS011;45672;51.612;5.536;2022-12-01T13:53:38;44.45;;;22.00;;
59786;SDS011;45672;51.612;5.536;2022-12-01T14:06:46;44.40;;;21.58;;
59786;SDS011;45672;51.612;5.536;2022-12-01T14:09:26;41.67;;;20.90;;
59786;SDS011;45672;51.612;5.536;2022-12-01T14:12:00;40.33;;;20.23;;
59786;SDS011;45672;51.612;5.536;2022-12-01T14:14:35;38.20;;;18.55;;
59786;SDS011;45672;51.612;5.536;2022-12-01T14:17:03;40.88;;;20.17;;
59786;SDS011;45672;51.612;5.536;2022-12-01T14:22:00;39.70;;;20.30;;
59786;SDS011;45672;51.612;5.536;2022-12-01T14:24:30;41.45;;;21.38;;
59786;SDS011;45672;51.612;5.536;2022-12-01T14:26:59;43.35;;;21.48;;
59786;SDS011;45672;51.612;5.536;2022-12-01T14:29:33;41.50;;;20.25;;
59786;SDS011;45672;51.612;5.536;2022-12-01T14:34:33;44.45;;;19.88;;
59786;SDS011;45672;51.612;5.536;2022-12-01T14:37:11;45.08;;;22.40;;
59786;SDS011;45672;51.612;5.536;2022-12-01T14:39:40;44.15;;;23.35;;
59786;SDS011;45672;51.612;5.536;2022-12-01T14:44:36;53.83;;;25.75;;
59786;SDS011;45672;51.612;5.536;2022-12-01T14:47:16;47.05;;;24.80;;
59786;SDS011;45672;51.612;5.536;2022-12-01T14:49:49;47.65;;;24.30;;
59786;SDS011;45672;51.612;5.536;2022-12-01T14:54:50;49.42;;;25.15;;
59786;SDS011;45672;51.612;5.536;2022-12-01T14:57:19;48.53;;;26.15;;
59786;SDS011;45672;51.612;5.536;2022-12-01T15:00:00;57.53;;;26.13;;
59786;SDS011;45672;51.612;5.536;2022-12-01T15:02:29;49.17;;;24.23;;
59786;SDS011;45672;51.612;5.536;2022-12-01T15:05:05;51.20;;;23.35;;
59786;SDS011;45672;51.612;5.536;2022-12-01T15:07:37;52.53;;;25.90;;
59786;SDS011;45672;51.612;5.536;2022-12-01T15:10:04;51.97;;;26.63;;
59786;SDS011;45672;51.612;5.536;2022-12-01T15:12:30;51.15;;;25.77;;
59786;SDS011;45672;51.612;5.536;2022-12-01T15:14:56;52.90;;;26.30;;
59786;SDS011;45672;51.612;5.536;2022-12-01T15:17:31;55.05;;;24.90;;
59786;SDS011;45672;51.612;5.536;2022-12-01T15:20:02;49.15;;;24.33;;
59786;SDS011;45672;51.612;5.536;2022-12-01T15:22:29;49.28;;;24.48;;
59786;SDS011;45672;51.612;5.536;2022-12-01T15:25:09;52.08;;;25.05;;
59786;SDS011;45672;51.612;5.536;2022-12-01T15:27:38;52.83;;;25.55;;
59786;SDS011;45672;51.612;5.536;2022-12-01T15:30:03;55.08;;;23.77;;
59786;SDS011;45672;51.612;5.536;2022-12-01T15:32:30;54.38;;;26.45;;
59786;SDS011;45672;51.612;5.536;2022-12-01T15:34:58;52.95;;;24.98;;
59786;SDS011;45672;51.612;5.536;2022-12-01T15:37:26;53.25;;;25.55;;
59786;SDS011;45672;51.612;5.536;2022-12-01T15:44:58;59.15;;;26.27;;
59786;SDS011;45672;51.612;5.536;2022-12-01T15:50:05;53.00;;;24.98;;
59786;SDS011;45672;51.612;5.536;2022-12-01T15:52:31;55.78;;;24.67;;
59786;SDS011;45672;51.612;5.536;2022-12-01T15:55:05;56.38;;;25.25;;
59786;SDS011;45672;51.612;5.536;2022-12-01T15:57:45;54.17;;;26.17;;
59786;SDS011;45672;51.612;5.536;2022-12-01T16:00:16;55.38;;;25.52;;
59786;SDS011;45672;51.612;5.536;2022-12-01T16:02:43;53.03;;;25.58;;
59786;SDS011;45672;51.612;5.536;2022-12-01T16:05:16;54.28;;;26.38;;
59786;SDS011;45672;51.612;5.536;2022-12-01T16:07:43;51.53;;;26.27;;
59786;SDS011;45672;51.612;5.536;2022-12-01T16:10:27;50.33;;;25.20;;
59786;SDS011;45672;51.612;5.536;2022-12-01T16:12:52;50.50;;;24.98;;
59786;SDS011;45672;51.612;5.536;2022-12-01T16:15:56;57.92;;;25.90;;
59786;SDS011;45672;51.612;5.536;2022-12-01T16:18:31;55.63;;;27.00;;
59786;SDS011;45672;51.612;5.536;2022-12-01T16:21:03;56.47;;;26.50;;
59786;SDS011;45672;51.612;5.536;2022-12-01T16:23:29;59.80;;;26.33;;
59786;SDS011;45672;51.612;5.536;2022-12-01T16:25:56;55.60;;;26.67;;
59786;SDS011;45672;51.612;5.536;2022-12-01T16:28:23;52.35;;;27.58;;
59786;SDS011;45672;51.612;5.536;2022-12-01T16:30:51;52.60;;;25.40;;
59786;SDS011;45672;51.612;5.536;2022-12-01T16:33:18;52.05;;;26.00;;
59786;SDS011;45672;51.612;5.536;2022-12-01T16:35:46;55.05;;;26.42;;
59786;SDS011;45672;51.612;5.536;2022-12-01T16:38:23;52.13;;;25.98;;